sensor_id;sensor_type;location;lat;lon;timestamp;temperature;humidity
33831;DHT22;20137;48.834;8.732;2023-10-08T00:02:19;16.30;97.80
33831;DHT22;20137;48.834;8.732;2023-10-08T00:04:48;16.30;98.00
33831;DHT22;20137;48.834;8.732;2023-10-08T00:07:17;16.40;98.10
33831;DHT22;20137;48.834;8.732;2023-10-08T00:09:47;16.50;98.00
33831;DHT22;20137;48.834;8.732;2023-10-08T00:12:13;16.50;97.90
33831;DHT22;20137;48.834;8.732;2023-10-08T00:14:39;16.50;97.80
33831;DHT22;20137;48.834;8.732;2023-10-08T00:17:11;16.50;97.90
33831;DHT22;20137;48.834;8.732;2023-10-08T00:19:36;16.60;97.60
33831;DHT22;20137;48.834;8.732;2023-10-08T00:22:03;16.60;97.80
33831;DHT22;20137;48.834;8.732;2023-10-08T00:24:35;16.50;97.80
33831;DHT22;20137;48.834;8.732;2023-10-08T00:27:01;16.50;98.00
33831;DHT22;20137;48.834;8.732;2023-10-08T00:29:28;16.70;98.10
33831;DHT22;20137;48.834;8.732;2023-10-08T00:31:57;16.80;98.10
33831;DHT22;20137;48.834;8.732;2023-10-08T00:34:23;16.80;98.00
33831;DHT22;20137;48.834;8.732;2023-10-08T00:36:53;16.70;97.90
33831;DHT22;20137;48.834;8.732;2023-10-08T00:39:19;16.60;98.10
33831;DHT22;20137;48.834;8.732;2023-10-08T00:41:59;16.50;98.30
33831;DHT22;20137;48.834;8.732;2023-10-08T00:44:25;16.40;98.70
33831;DHT22;20137;48.834;8.732;2023-10-08T00:46:56;16.40;98.70
33831;DHT22;20137;48.834;8.732;2023-10-08T00:49:24;16.40;98.60
33831;DHT22;20137;48.834;8.732;2023-10-08T00:51:55;16.50;98.70
33831;DHT22;20137;48.834;8.732;2023-10-08T00:54:29;16.60;98.70
33831;DHT22;20137;48.834;8.732;2023-10-08T00:56:59;16.60;99.00
33831;DHT22;20137;48.834;8.732;2023-10-08T00:59:32;16.60;99.10
33831;DHT22;20137;48.834;8.732;2023-10-08T01:02:10;16.50;99.30
33831;DHT22;20137;48.834;8.732;2023-10-08T01:04:40;16.60;99.40
33831;DHT22;20137;48.834;8.732;2023-10-08T01:07:10;16.60;99.40
33831;DHT22;20137;48.834;8.732;2023-10-08T01:09:39;16.60;99.70
33831;DHT22;20137;48.834;8.732;2023-10-08T01:12:15;16.60;99.90
33831;DHT22;20137;48.834;8.732;2023-10-08T01:14:45;16.60;99.90
33831;DHT22;20137;48.834;8.732;2023-10-08T01:17:13;16.70;99.90
33831;DHT22;20137;48.834;8.732;2023-10-08T01:19:44;16.70;99.90
33831;DHT22;20137;48.834;8.732;2023-10-08T01:22:14;16.60;99.90
33831;DHT22;20137;48.834;8.732;2023-10-08T01:24:44;16.60;99.90
33831;DHT22;20137;48.834;8.732;2023-10-08T01:27:13;16.50;99.90
33831;DHT22;20137;48.834;8.732;2023-10-08T01:29:44;16.60;99.90
33831;DHT22;20137;48.834;8.732;2023-10-08T01:32:10;16.60;99.90
33831;DHT22;20137;48.834;8.732;2023-10-08T01:34:37;16.60;99.90
33831;DHT22;20137;48.834;8.732;2023-10-08T01:37:03;16.60;99.90
33831;DHT22;20137;48.834;8.732;2023-10-08T01:39:37;16.70;99.90
33831;DHT22;20137;48.834;8.732;2023-10-08T01:42:08;16.70;99.90
33831;DHT22;20137;48.834;8.732;2023-10-08T01:44:42;16.60;99.90
33831;DHT22;20137;48.834;8.732;2023-10-08T01:47:12;16.60;99.90
33831;DHT22;20137;48.834;8.732;2023-10-08T01:49:38;16.60;99.90
33831;DHT22;20137;48.834;8.732;2023-10-08T01:52:05;16.60;99.90
33831;DHT22;20137;48.834;8.732;2023-10-08T01:54:33;16.50;99.90
33831;DHT22;20137;48.834;8.732;2023-10-08T01:57:01;16.50;99.90
33831;DHT22;20137;48.834;8.732;2023-10-08T01:59:27;16.40;99.90
33831;DHT22;20137;48.834;8.732;2023-10-08T02:01:52;16.40;99.90
33831;DHT22;20137;48.834;8.732;2023-10-08T02:04:22;16.40;99.90
33831;DHT22;20137;48.834;8.732;2023-10-08T02:06:48;16.40;99.90
33831;DHT22;20137;48.834;8.732;2023-10-08T02:09:13;16.50;99.90
33831;DHT22;20137;48.834;8.732;2023-10-08T02:11:45;16.50;99.90
33831;DHT22;20137;48.834;8.732;2023-10-08T02:14:11;16.60;99.90
33831;DHT22;20137;48.834;8.732;2023-10-08T02:16:40;16.60;99.90
33831;DHT22;20137;48.834;8.732;2023-10-08T02:19:07;16.60;99.90
33831;DHT22;20137;48.834;8.732;2023-10-08T02:21:36;16.60;99.90
33831;DHT22;20137;48.834;8.732;2023-10-08T02:24:04;16.60;99.90
33831;DHT22;20137;48.834;8.732;2023-10-08T02:26:30;16.60;99.90
33831;DHT22;20137;48.834;8.732;2023-10-08T02:28:56;16.60;99.90
33831;DHT22;20137;48.834;8.732;2023-10-08T02:31:25;16.60;99.90
33831;DHT22;20137;48.834;8.732;2023-10-08T02:33:50;16.50;99.90
33831;DHT22;20137;48.834;8.732;2023-10-08T02:36:16;16.50;99.90
33831;DHT22;20137;48.834;8.732;2023-10-08T02:38:42;16.50;99.90
33831;DHT22;20137;48.834;8.732;2023-10-08T02:41:07;16.50;99.90
33831;DHT22;20137;48.834;8.732;2023-10-08T02:43:33;16.40;99.90
33831;DHT22;20137;48.834;8.732;2023-10-08T02:46:03;16.40;99.90
33831;DHT22;20137;48.834;8.732;2023-10-08T02:48:36;16.50;99.90
33831;DHT22;20137;48.834;8.732;2023-10-08T02:51:01;16.30;99.90
33831;DHT22;20137;48.834;8.732;2023-10-08T02:53:39;16.20;99.90
33831;DHT22;20137;48.834;8.732;2023-10-08T02:56:08;16.20;99.90
33831;DHT22;20137;48.834;8.732;2023-10-08T02:58:38;16.10;99.90
33831;DHT22;20137;48.834;8.732;2023-10-08T03:01:05;16.10;99.90
33831;DHT22;20137;48.834;8.732;2023-10-08T03:03:31;16.10;99.90
33831;DHT22;20137;48.834;8.732;2023-10-08T03:05:58;16.00;99.90
33831;DHT22;20137;48.834;8.732;2023-10-08T03:08:24;16.00;99.90
33831;DHT22;20137;48.834;8.732;2023-10-08T03:10:53;16.00;99.90
33831;DHT22;20137;48.834;8.732;2023-10-08T03:13:22;16.00;99.90
33831;DHT22;20137;48.834;8.732;2023-10-08T03:15:48;16.00;99.90
33831;DHT22;20137;48.834;8.732;2023-10-08T03:18:26;16.00;99.90
33831;DHT22;20137;48.834;8.732;2023-10-08T03:20:59;15.90;99.90
33831;DHT22;20137;48.834;8.732;2023-10-08T03:23:29;15.90;99.90
33831;DHT22;20137;48.834;8.732;2023-10-08T03:26:03;16.00;99.90
33831;DHT22;20137;48.834;8.732;2023-10-08T03:28:30;16.00;99.90
33831;DHT22;20137;48.834;8.732;2023-10-08T03:31:00;16.00;99.90
33831;DHT22;20137;48.834;8.732;2023-10-08T03:33:39;16.10;99.90
33831;DHT22;20137;48.834;8.732;2023-10-08T03:36:06;16.20;99.90
33831;DHT22;20137;48.834;8.732;2023-10-08T03:38:52;16.10;99.90
33831;DHT22;20137;48.834;8.732;2023-10-08T03:41:22;16.20;99.90
33831;DHT22;20137;48.834;8.732;2023-10-08T03:43:54;16.20;99.90
33831;DHT22;20137;48.834;8.732;2023-10-08T03:46:32;16.10;99.90
33831;DHT22;20137;48.834;8.732;2023-10-08T03:49:05;16.10;99.90
33831;DHT22;20137;48.834;8.732;2023-10-08T03:51:37;16.20;99.90
33831;DHT22;20137;48.834;8.732;2023-10-08T03:54:06;16.40;99.90
33831;DHT22;20137;48.834;8.732;2023-10-08T03:56:34;16.30;99.90
33831;DHT22;20137;48.834;8.732;2023-10-08T03:59:02;16.40;99.90
33831;DHT22;20137;48.834;8.732;2023-10-08T04:01:46;16.40;99.90
33831;DHT22;20137;48.834;8.732;2023-10-08T04:04:14;16.50;99.90
33831;DHT22;20137;48.834;8.732;2023-10-08T04:06:41;16.60;99.90
33831;DHT22;20137;48.834;8.732;2023-10-08T04:09:15;16.70;99.90
33831;DHT22;20137;48.834;8.732;2023-10-08T04:11:51;16.70;99.90
33831;DHT22;20137;48.834;8.732;2023-10-08T04:14:24;16.70;99.90
33831;DHT22;20137;48.834;8.732;2023-10-08T04:16:51;16.70;99.90
33831;DHT22;20137;48.834;8.732;2023-10-08T04:19:20;16.80;99.90
33831;DHT22;20137;48.834;8.732;2023-10-08T04:21:55;16.80;99.90
33831;DHT22;20137;48.834;8.732;2023-10-08T04:24:25;16.90;99.90
33831;DHT22;20137;48.834;8.732;2023-10-08T04:26:57;16.90;99.90
33831;DHT22;20137;48.834;8.732;2023-10-08T04:29:24;17.10;99.90
33831;DHT22;20137;48.834;8.732;2023-10-08T04:31:50;17.10;99.90
33831;DHT22;20137;48.834;8.732;2023-10-08T04:34:28;17.10;99.90
33831;DHT22;20137;48.834;8.732;2023-10-08T04:36:53;17.30;99.90
33831;DHT22;20137;48.834;8.732;2023-10-08T04:39:23;17.20;99.80
33831;DHT22;20137;48.834;8.732;2023-10-08T04:42:00;17.10;99.80
33831;DHT22;20137;48.834;8.732;2023-10-08T04:44:38;17.10;99.80
33831;DHT22;20137;48.834;8.732;2023-10-08T04:47:07;17.10;99.80
33831;DHT22;20137;48.834;8.732;2023-10-08T04:49:53;17.10;99.80
33831;DHT22;20137;48.834;8.732;2023-10-08T04:52:18;17.10;99.80
33831;DHT22;20137;48.834;8.732;2023-10-08T04:54:45;17.10;99.80
33831;DHT22;20137;48.834;8.732;2023-10-08T04:57:18;17.00;99.90
33831;DHT22;20137;48.834;8.732;2023-10-08T04:59:47;17.00;99.90
33831;DHT22;20137;48.834;8.732;2023-10-08T05:02:16;17.00;99.90
33831;DHT22;20137;48.834;8.732;2023-10-08T05:04:51;17.00;99.90
33831;DHT22;20137;48.834;8.732;2023-10-08T05:07:20;16.90;99.90
33831;DHT22;20137;48.834;8.732;2023-10-08T05:09:51;16.90;99.90
33831;DHT22;20137;48.834;8.732;2023-10-08T05:12:36;16.80;99.90
33831;DHT22;20137;48.834;8.732;2023-10-08T05:15:37;16.80;99.90
33831;DHT22;20137;48.834;8.732;2023-10-08T05:18:07;16.70;99.90
33831;DHT22;20137;48.834;8.732;2023-10-08T05:20:44;16.70;99.90
33831;DHT22;20137;48.834;8.732;2023-10-08T05:23:18;16.70;99.90
33831;DHT22;20137;48.834;8.732;2023-10-08T05:25:52;16.70;99.90
33831;DHT22;20137;48.834;8.732;2023-10-08T05:28:31;16.70;99.90
33831;DHT22;20137;48.834;8.732;2023-10-08T05:31:07;16.80;99.90
33831;DHT22;20137;48.834;8.732;2023-10-08T05:33:39;16.80;99.90
33831;DHT22;20137;48.834;8.732;2023-10-08T05:36:23;16.70;99.90
33831;DHT22;20137;48.834;8.732;2023-10-08T05:39:07;16.70;99.90
33831;DHT22;20137;48.834;8.732;2023-10-08T05:41:56;16.80;99.90
33831;DHT22;20137;48.834;8.732;2023-10-08T05:44:45;16.80;99.90
33831;DHT22;20137;48.834;8.732;2023-10-08T05:47:29;16.70;99.90
33831;DHT22;20137;48.834;8.732;2023-10-08T05:49:57;16.70;99.90
33831;DHT22;20137;48.834;8.732;2023-10-08T05:52:55;16.60;99.90
33831;DHT22;20137;48.834;8.732;2023-10-08T05:55:28;16.60;99.90
33831;DHT22;20137;48.834;8.732;2023-10-08T05:57:59;16.50;99.90
33831;DHT22;20137;48.834;8.732;2023-10-08T06:00:47;16.60;99.90
33831;DHT22;20137;48.834;8.732;2023-10-08T06:03:16;16.60;99.90
33831;DHT22;20137;48.834;8.732;2023-10-08T06:06:08;16.50;99.90
33831;DHT22;20137;48.834;8.732;2023-10-08T06:08:37;16.50;99.90
33831;DHT22;20137;48.834;8.732;2023-10-08T06:11:18;16.50;99.90
33831;DHT22;20137;48.834;8.732;2023-10-08T06:14:03;16.70;99.90
33831;DHT22;20137;48.834;8.732;2023-10-08T06:16:38;16.90;99.90
33831;DHT22;20137;48.834;8.732;2023-10-08T06:19:08;17.00;99.50
33831;DHT22;20137;48.834;8.732;2023-10-08T06:21:42;17.00;99.90
33831;DHT22;20137;48.834;8.732;2023-10-08T06:24:09;17.00;99.40
33831;DHT22;20137;48.834;8.732;2023-10-08T06:26:37;17.10;99.20
33831;DHT22;20137;48.834;8.732;2023-10-08T06:29:10;17.30;98.80
33831;DHT22;20137;48.834;8.732;2023-10-08T06:31:52;17.40;98.50
33831;DHT22;20137;48.834;8.732;2023-10-08T06:34:21;17.60;98.40
33831;DHT22;20137;48.834;8.732;2023-10-08T06:36:47;17.70;97.90
33831;DHT22;20137;48.834;8.732;2023-10-08T06:39:13;17.80;97.90
33831;DHT22;20137;48.834;8.732;2023-10-08T06:41:44;17.90;97.60
33831;DHT22;20137;48.834;8.732;2023-10-08T06:44:11;17.90;97.70
33831;DHT22;20137;48.834;8.732;2023-10-08T06:46:40;18.20;97.10
33831;DHT22;20137;48.834;8.732;2023-10-08T06:49:08;18.30;97.00
33831;DHT22;20137;48.834;8.732;2023-10-08T06:51:44;18.40;96.70
33831;DHT22;20137;48.834;8.732;2023-10-08T06:54:10;18.50;96.80
33831;DHT22;20137;48.834;8.732;2023-10-08T06:56:39;18.60;96.30
33831;DHT22;20137;48.834;8.732;2023-10-08T06:59:12;18.60;96.60
33831;DHT22;20137;48.834;8.732;2023-10-08T07:01:38;18.70;96.40
33831;DHT22;20137;48.834;8.732;2023-10-08T07:04:08;18.80;96.30
33831;DHT22;20137;48.834;8.732;2023-10-08T07:06:41;18.90;95.90
33831;DHT22;20137;48.834;8.732;2023-10-08T07:09:09;19.10;95.50
33831;DHT22;20137;48.834;8.732;2023-10-08T07:11:54;19.20;95.70
33831;DHT22;20137;48.834;8.732;2023-10-08T07:14:24;19.20;95.80
33831;DHT22;20137;48.834;8.732;2023-10-08T07:16:56;19.20;95.40
33831;DHT22;20137;48.834;8.732;2023-10-08T07:19:24;19.20;95.50
33831;DHT22;20137;48.834;8.732;2023-10-08T07:21:59;19.30;95.30
33831;DHT22;20137;48.834;8.732;2023-10-08T07:24:31;19.40;95.80
33831;DHT22;20137;48.834;8.732;2023-10-08T07:27:01;19.40;95.40
33831;DHT22;20137;48.834;8.732;2023-10-08T07:29:31;19.60;95.00
33831;DHT22;20137;48.834;8.732;2023-10-08T07:31:58;19.60;95.50
33831;DHT22;20137;48.834;8.732;2023-10-08T07:34:37;19.60;95.50
33831;DHT22;20137;48.834;8.732;2023-10-08T07:37:03;19.60;95.80
33831;DHT22;20137;48.834;8.732;2023-10-08T07:39:31;19.50;96.10
33831;DHT22;20137;48.834;8.732;2023-10-08T07:41:58;19.50;95.50
33831;DHT22;20137;48.834;8.732;2023-10-08T07:44:25;19.40;96.50
33831;DHT22;20137;48.834;8.732;2023-10-08T07:46:53;19.20;96.20
33831;DHT22;20137;48.834;8.732;2023-10-08T07:49:20;19.10;96.80
33831;DHT22;20137;48.834;8.732;2023-10-08T07:51:46;19.00;97.00
33831;DHT22;20137;48.834;8.732;2023-10-08T07:54:20;19.00;97.20
33831;DHT22;20137;48.834;8.732;2023-10-08T07:56:48;19.00;97.50
33831;DHT22;20137;48.834;8.732;2023-10-08T07:59:14;19.00;97.40
33831;DHT22;20137;48.834;8.732;2023-10-08T08:01:42;18.90;98.00
33831;DHT22;20137;48.834;8.732;2023-10-08T08:04:12;19.00;97.70
33831;DHT22;20137;48.834;8.732;2023-10-08T08:06:51;19.00;98.00
33831;DHT22;20137;48.834;8.732;2023-10-08T08:09:17;19.10;97.80
33831;DHT22;20137;48.834;8.732;2023-10-08T08:11:48;19.30;97.90
33831;DHT22;20137;48.834;8.732;2023-10-08T08:14:16;19.30;98.10
33831;DHT22;20137;48.834;8.732;2023-10-08T08:16:50;19.50;96.60
33831;DHT22;20137;48.834;8.732;2023-10-08T08:19:17;19.60;97.30
33831;DHT22;20137;48.834;8.732;2023-10-08T08:21:49;19.60;96.50
33831;DHT22;20137;48.834;8.732;2023-10-08T08:24:15;19.60;97.10
33831;DHT22;20137;48.834;8.732;2023-10-08T08:26:55;19.70;96.90
33831;DHT22;20137;48.834;8.732;2023-10-08T08:29:33;19.80;96.30
33831;DHT22;20137;48.834;8.732;2023-10-08T08:32:12;19.90;97.00
33831;DHT22;20137;48.834;8.732;2023-10-08T08:34:44;20.00;96.20
33831;DHT22;20137;48.834;8.732;2023-10-08T08:37:12;20.00;96.50
33831;DHT22;20137;48.834;8.732;2023-10-08T08:39:39;20.00;96.60
33831;DHT22;20137;48.834;8.732;2023-10-08T08:42:06;20.10;96.20
33831;DHT22;20137;48.834;8.732;2023-10-08T08:44:35;20.00;96.00
33831;DHT22;20137;48.834;8.732;2023-10-08T08:47:05;20.00;96.50
33831;DHT22;20137;48.834;8.732;2023-10-08T08:49:36;20.00;96.60
33831;DHT22;20137;48.834;8.732;2023-10-08T08:52:05;20.00;97.00
33831;DHT22;20137;48.834;8.732;2023-10-08T08:54:31;20.10;96.80
33831;DHT22;20137;48.834;8.732;2023-10-08T08:57:00;20.10;97.30
33831;DHT22;20137;48.834;8.732;2023-10-08T08:59:30;20.10;97.20
33831;DHT22;20137;48.834;8.732;2023-10-08T09:01:59;20.10;96.70
33831;DHT22;20137;48.834;8.732;2023-10-08T09:04:32;20.10;97.10
33831;DHT22;20137;48.834;8.732;2023-10-08T09:07:01;20.10;96.90
33831;DHT22;20137;48.834;8.732;2023-10-08T09:09:34;20.10;97.20
33831;DHT22;20137;48.834;8.732;2023-10-08T09:12:01;20.20;96.70
33831;DHT22;20137;48.834;8.732;2023-10-08T09:14:27;20.30;96.60
33831;DHT22;20137;48.834;8.732;2023-10-08T09:17:00;20.40;96.30
33831;DHT22;20137;48.834;8.732;2023-10-08T09:19:26;20.70;96.50
33831;DHT22;20137;48.834;8.732;2023-10-08T09:22:11;20.90;96.20
33831;DHT22;20137;48.834;8.732;2023-10-08T09:24:41;21.20;96.40
33831;DHT22;20137;48.834;8.732;2023-10-08T09:27:10;21.30;95.60
33831;DHT22;20137;48.834;8.732;2023-10-08T09:29:44;21.30;95.60
33831;DHT22;20137;48.834;8.732;2023-10-08T09:32:12;21.30;96.20
33831;DHT22;20137;48.834;8.732;2023-10-08T09:34:49;21.50;95.00
33831;DHT22;20137;48.834;8.732;2023-10-08T09:37:17;21.40;94.70
33831;DHT22;20137;48.834;8.732;2023-10-08T09:39:43;21.40;94.90
33831;DHT22;20137;48.834;8.732;2023-10-08T09:42:12;21.40;94.30
33831;DHT22;20137;48.834;8.732;2023-10-08T09:44:39;21.50;94.00
33831;DHT22;20137;48.834;8.732;2023-10-08T09:47:07;21.50;94.20
33831;DHT22;20137;48.834;8.732;2023-10-08T09:49:56;21.50;93.90
33831;DHT22;20137;48.834;8.732;2023-10-08T09:52:26;21.60;93.30
33831;DHT22;20137;48.834;8.732;2023-10-08T09:55:00;21.80;93.10
33831;DHT22;20137;48.834;8.732;2023-10-08T09:57:28;22.00;93.20
33831;DHT22;20137;48.834;8.732;2023-10-08T09:59:53;22.00;92.50
33831;DHT22;20137;48.834;8.732;2023-10-08T10:02:19;22.00;92.90
33831;DHT22;20137;48.834;8.732;2023-10-08T10:04:51;22.10;92.80
33831;DHT22;20137;48.834;8.732;2023-10-08T10:07:19;22.30;93.20
33831;DHT22;20137;48.834;8.732;2023-10-08T10:09:49;22.50;92.00
33831;DHT22;20137;48.834;8.732;2023-10-08T10:12:25;22.50;91.70
33831;DHT22;20137;48.834;8.732;2023-10-08T10:14:55;22.50;91.50
33831;DHT22;20137;48.834;8.732;2023-10-08T10:17:25;22.40;90.70
33831;DHT22;20137;48.834;8.732;2023-10-08T10:19:55;22.30;91.10
33831;DHT22;20137;48.834;8.732;2023-10-08T10:22:34;22.40;92.00
33831;DHT22;20137;48.834;8.732;2023-10-08T10:25:01;22.30;91.40
33831;DHT22;20137;48.834;8.732;2023-10-08T10:30:29;22.60;91.70
33831;DHT22;20137;48.834;8.732;2023-10-08T10:32:55;22.70;91.30
33831;DHT22;20137;48.834;8.732;2023-10-08T10:35:25;22.60;90.30
33831;DHT22;20137;48.834;8.732;2023-10-08T10:37:53;22.70;90.90
33831;DHT22;20137;48.834;8.732;2023-10-08T10:40:24;23.00;91.50
33831;DHT22;20137;48.834;8.732;2023-10-08T10:43:16;23.00;90.20
33831;DHT22;20137;48.834;8.732;2023-10-08T10:45:45;22.80;89.10
33831;DHT22;20137;48.834;8.732;2023-10-08T10:48:13;22.80;89.60
33831;DHT22;20137;48.834;8.732;2023-10-08T10:50:42;22.80;89.00
33831;DHT22;20137;48.834;8.732;2023-10-08T10:53:28;22.70;88.50
33831;DHT22;20137;48.834;8.732;2023-10-08T10:55:55;22.50;89.80
33831;DHT22;20137;48.834;8.732;2023-10-08T10:58:26;22.50;89.90
33831;DHT22;20137;48.834;8.732;2023-10-08T11:00:54;22.50;89.80
33831;DHT22;20137;48.834;8.732;2023-10-08T11:03:23;22.60;90.50
33831;DHT22;20137;48.834;8.732;2023-10-08T11:05:59;22.60;89.80
33831;DHT22;20137;48.834;8.732;2023-10-08T11:08:31;22.60;88.80
33831;DHT22;20137;48.834;8.732;2023-10-08T11:11:00;22.50;89.20
33831;DHT22;20137;48.834;8.732;2023-10-08T11:13:33;22.50;90.50
33831;DHT22;20137;48.834;8.732;2023-10-08T11:16:05;22.50;90.00
33831;DHT22;20137;48.834;8.732;2023-10-08T11:18:31;22.40;89.30
33831;DHT22;20137;48.834;8.732;2023-10-08T11:21:10;22.40;90.10
33831;DHT22;20137;48.834;8.732;2023-10-08T11:23:45;22.40;89.50
33831;DHT22;20137;48.834;8.732;2023-10-08T11:26:36;22.50;90.40
33831;DHT22;20137;48.834;8.732;2023-10-08T11:29:06;22.50;90.50
33831;DHT22;20137;48.834;8.732;2023-10-08T11:31:40;22.50;89.10
33831;DHT22;20137;48.834;8.732;2023-10-08T11:34:05;22.40;89.20
33831;DHT22;20137;48.834;8.732;2023-10-08T11:36:36;22.50;88.80
33831;DHT22;20137;48.834;8.732;2023-10-08T11:39:14;22.60;88.60
33831;DHT22;20137;48.834;8.732;2023-10-08T11:42:00;22.70;90.30
33831;DHT22;20137;48.834;8.732;2023-10-08T11:44:33;22.70;90.20
33831;DHT22;20137;48.834;8.732;2023-10-08T11:47:02;22.70;90.00
33831;DHT22;20137;48.834;8.732;2023-10-08T11:49:40;22.80;90.00
33831;DHT22;20137;48.834;8.732;2023-10-08T11:52:13;22.90;90.60
33831;DHT22;20137;48.834;8.732;2023-10-08T11:54:45;23.00;89.40
33831;DHT22;20137;48.834;8.732;2023-10-08T11:57:13;23.00;88.50
33831;DHT22;20137;48.834;8.732;2023-10-08T11:59:39;23.00;89.00
33831;DHT22;20137;48.834;8.732;2023-10-08T12:02:06;23.00;88.20
33831;DHT22;20137;48.834;8.732;2023-10-08T12:04:32;22.90;88.60
33831;DHT22;20137;48.834;8.732;2023-10-08T12:06:58;22.90;89.80
33831;DHT22;20137;48.834;8.732;2023-10-08T12:09:28;22.80;90.10
33831;DHT22;20137;48.834;8.732;2023-10-08T12:11:54;22.90;89.10
33831;DHT22;20137;48.834;8.732;2023-10-08T12:14:21;22.90;89.30
33831;DHT22;20137;48.834;8.732;2023-10-08T12:16:52;23.00;90.50
33831;DHT22;20137;48.834;8.732;2023-10-08T12:19:18;23.00;87.80
33831;DHT22;20137;48.834;8.732;2023-10-08T12:21:44;22.90;88.70
33831;DHT22;20137;48.834;8.732;2023-10-08T12:24:12;23.00;89.20
33831;DHT22;20137;48.834;8.732;2023-10-08T12:26:39;23.10;88.70
33831;DHT22;20137;48.834;8.732;2023-10-08T12:29:14;23.10;89.30
33831;DHT22;20137;48.834;8.732;2023-10-08T12:31:40;23.10;87.90
33831;DHT22;20137;48.834;8.732;2023-10-08T12:34:06;23.20;88.30
33831;DHT22;20137;48.834;8.732;2023-10-08T12:36:37;23.30;87.50
33831;DHT22;20137;48.834;8.732;2023-10-08T12:39:03;23.20;86.70
33831;DHT22;20137;48.834;8.732;2023-10-08T12:41:35;23.10;87.60
33831;DHT22;20137;48.834;8.732;2023-10-08T12:44:04;23.10;86.90
33831;DHT22;20137;48.834;8.732;2023-10-08T12:46:33;23.10;87.10
33831;DHT22;20137;48.834;8.732;2023-10-08T12:48:59;23.20;87.00
33831;DHT22;20137;48.834;8.732;2023-10-08T12:51:27;23.20;87.10
33831;DHT22;20137;48.834;8.732;2023-10-08T12:53:57;23.30;86.70
33831;DHT22;20137;48.834;8.732;2023-10-08T12:56:33;23.30;86.80
33831;DHT22;20137;48.834;8.732;2023-10-08T12:59:04;23.40;86.90
33831;DHT22;20137;48.834;8.732;2023-10-08T13:01:35;23.50;88.40
33831;DHT22;20137;48.834;8.732;2023-10-08T13:04:02;23.60;88.10
33831;DHT22;20137;48.834;8.732;2023-10-08T13:06:33;23.60;88.20
33831;DHT22;20137;48.834;8.732;2023-10-08T13:08:59;23.70;87.20
33831;DHT22;20137;48.834;8.732;2023-10-08T13:11:27;23.60;86.80
33831;DHT22;20137;48.834;8.732;2023-10-08T13:13:56;23.50;85.00
33831;DHT22;20137;48.834;8.732;2023-10-08T13:16:23;23.40;86.00
33831;DHT22;20137;48.834;8.732;2023-10-08T13:18:49;23.40;86.10
33831;DHT22;20137;48.834;8.732;2023-10-08T13:21:16;23.40;86.90
33831;DHT22;20137;48.834;8.732;2023-10-08T13:23:44;23.40;85.30
33831;DHT22;20137;48.834;8.732;2023-10-08T13:26:10;23.40;85.60
33831;DHT22;20137;48.834;8.732;2023-10-08T13:28:42;23.40;85.50
33831;DHT22;20137;48.834;8.732;2023-10-08T13:31:08;23.40;85.80
33831;DHT22;20137;48.834;8.732;2023-10-08T13:33:41;23.40;85.60
33831;DHT22;20137;48.834;8.732;2023-10-08T13:36:11;23.40;85.30
33831;DHT22;20137;48.834;8.732;2023-10-08T13:38:39;23.40;83.90
33831;DHT22;20137;48.834;8.732;2023-10-08T13:41:06;23.40;85.10
33831;DHT22;20137;48.834;8.732;2023-10-08T13:43:44;23.40;85.80
33831;DHT22;20137;48.834;8.732;2023-10-08T13:46:14;23.40;84.20
33831;DHT22;20137;48.834;8.732;2023-10-08T13:48:42;23.40;83.20
33831;DHT22;20137;48.834;8.732;2023-10-08T13:51:11;23.40;85.00
33831;DHT22;20137;48.834;8.732;2023-10-08T13:53:41;23.40;84.90
33831;DHT22;20137;48.834;8.732;2023-10-08T13:56:10;23.40;83.20
33831;DHT22;20137;48.834;8.732;2023-10-08T13:58:37;23.40;84.10
33831;DHT22;20137;48.834;8.732;2023-10-08T14:01:11;23.40;84.10
33831;DHT22;20137;48.834;8.732;2023-10-08T14:03:50;23.40;84.50
33831;DHT22;20137;48.834;8.732;2023-10-08T14:06:21;23.40;84.80
33831;DHT22;20137;48.834;8.732;2023-10-08T14:08:48;23.40;84.20
33831;DHT22;20137;48.834;8.732;2023-10-08T14:11:23;23.40;85.20
33831;DHT22;20137;48.834;8.732;2023-10-08T14:13:52;23.40;85.30
33831;DHT22;20137;48.834;8.732;2023-10-08T14:16:19;23.40;85.50
33831;DHT22;20137;48.834;8.732;2023-10-08T14:18:50;23.40;85.10
33831;DHT22;20137;48.834;8.732;2023-10-08T14:21:19;23.40;85.50
33831;DHT22;20137;48.834;8.732;2023-10-08T14:23:52;23.30;85.10
33831;DHT22;20137;48.834;8.732;2023-10-08T14:26:18;23.30;86.00
33831;DHT22;20137;48.834;8.732;2023-10-08T14:28:48;23.40;87.20
33831;DHT22;20137;48.834;8.732;2023-10-08T14:31:19;23.40;86.80
33831;DHT22;20137;48.834;8.732;2023-10-08T14:33:48;23.30;86.00
33831;DHT22;20137;48.834;8.732;2023-10-08T14:36:45;23.10;85.80
33831;DHT22;20137;48.834;8.732;2023-10-08T14:39:30;23.00;86.50
33831;DHT22;20137;48.834;8.732;2023-10-08T14:42:14;22.90;86.90
33831;DHT22;20137;48.834;8.732;2023-10-08T14:44:59;22.80;86.70
33831;DHT22;20137;48.834;8.732;2023-10-08T14:47:26;22.80;87.50
33831;DHT22;20137;48.834;8.732;2023-10-08T14:49:51;22.90;87.10
33831;DHT22;20137;48.834;8.732;2023-10-08T14:52:17;22.80;87.60
33831;DHT22;20137;48.834;8.732;2023-10-08T14:54:44;22.90;88.00
33831;DHT22;20137;48.834;8.732;2023-10-08T14:57:11;23.00;87.30
33831;DHT22;20137;48.834;8.732;2023-10-08T14:59:40;22.90;87.90
33831;DHT22;20137;48.834;8.732;2023-10-08T15:02:07;23.00;88.90
33831;DHT22;20137;48.834;8.732;2023-10-08T15:04:33;23.00;87.80
33831;DHT22;20137;48.834;8.732;2023-10-08T15:07:03;23.00;87.70
33831;DHT22;20137;48.834;8.732;2023-10-08T15:09:29;23.00;87.90
33831;DHT22;20137;48.834;8.732;2023-10-08T15:11:55;23.00;88.40
33831;DHT22;20137;48.834;8.732;2023-10-08T15:14:23;23.00;88.90
33831;DHT22;20137;48.834;8.732;2023-10-08T15:16:50;23.00;88.30
33831;DHT22;20137;48.834;8.732;2023-10-08T15:19:19;23.00;88.80
33831;DHT22;20137;48.834;8.732;2023-10-08T15:21:45;23.00;87.80
33831;DHT22;20137;48.834;8.732;2023-10-08T15:24:21;23.00;88.40
33831;DHT22;20137;48.834;8.732;2023-10-08T15:26:51;22.90;89.30
33831;DHT22;20137;48.834;8.732;2023-10-08T15:29:22;22.90;89.00
33831;DHT22;20137;48.834;8.732;2023-10-08T15:31:53;22.80;88.10
33831;DHT22;20137;48.834;8.732;2023-10-08T15:34:21;22.70;89.10
33831;DHT22;20137;48.834;8.732;2023-10-08T15:36:46;22.70;90.40
33831;DHT22;20137;48.834;8.732;2023-10-08T15:39:12;22.60;90.10
33831;DHT22;20137;48.834;8.732;2023-10-08T15:41:39;22.70;89.70
33831;DHT22;20137;48.834;8.732;2023-10-08T15:44:08;22.50;90.10
33831;DHT22;20137;48.834;8.732;2023-10-08T15:46:33;22.40;90.30
33831;DHT22;20137;48.834;8.732;2023-10-08T15:49:01;22.40;90.50
33831;DHT22;20137;48.834;8.732;2023-10-08T15:51:31;22.30;90.30
33831;DHT22;20137;48.834;8.732;2023-10-08T15:53:58;22.20;90.10
33831;DHT22;20137;48.834;8.732;2023-10-08T15:56:24;22.10;90.30